Time;durP1;ratioP1;P1;durP2;ratioP2;P2;SDS_P1;SDS_P2;PMS_P1;PMS_P2;Temp;Humidity;BMP_temperature;BMP_pressure;BME280_temperature;BME280_humidity;BME280_pressure;Samples;Min_cycle;Max_cycle;Signal;HPM_P1;HPM_P2
2021/01/31 00:04:25;;;;;;;10.38;7.35;;;;;;;-1.13;65.50;96477.34;9959705;29;20066;-73
2021/01/31 00:09:48;;;;;;;10.20;6.70;;;;;;;-1.18;65.68;96486.44;9946270;29;20594;-73
2021/01/31 00:15:09;;;;;;;10.48;6.68;;;;;;;-1.26;66.06;96464.53;9972786;29;20095;-73
2021/01/31 00:20:31;;;;;;;10.65;6.85;;;;;;;-1.37;65.86;96469.63;9958986;29;20153;-73
2021/01/31 00:25:50;;;;;;;11.35;6.95;;;;;;;-1.39;66.31;96472.19;9971106;29;20062;-73
2021/01/31 00:31:10;;;;;;;10.80;7.57;;;;;;;-1.43;66.34;96471.81;9958172;29;20058;-73
2021/01/31 00:36:30;;;;;;;10.82;7.15;;;;;;;-1.45;66.44;96469.59;9945492;29;20070;-73
2021/01/31 00:41:49;;;;;;;11.25;7.55;;;;;;;-1.46;66.47;96470.88;9958714;29;20495;-73
2021/01/31 00:47:09;;;;;;;11.00;7.35;;;;;;;-1.46;66.22;96466.13;9933362;29;20066;-73
2021/01/31 00:52:29;;;;;;;12.75;7.43;;;;;;;-1.54;66.38;96475.63;9946264;29;20074;-73
2021/01/31 00:57:52;;;;;;;10.70;7.13;;;;;;;-1.66;66.25;96467.00;9957565;29;20058;-73
2021/01/31 01:03:14;;;;;;;11.20;7.90;;;;;;;-1.78;66.80;96476.81;9958131;29;20101;-73
2021/01/31 01:08:57;;;;;;;11.43;7.38;;;;;;;-1.92;66.75;96478.97;9983377;29;20058;-73
2021/01/31 01:14:16;;;;;;;12.32;8.15;;;;;;;-2.06;66.54;96481.09;9969855;29;20499;-73
2021/01/31 01:19:36;;;;;;;11.85;8.05;;;;;;;-2.19;67.39;96473.03;9944972;29;20078;-73
2021/01/31 01:25:02;;;;;;;14.93;7.95;;;;;;;-2.28;66.55;96470.06;9957011;29;20092;-73
2021/01/31 01:30:26;;;;;;;10.30;7.57;;;;;;;-2.39;67.07;96460.91;9957568;29;20067;-73
2021/01/31 01:35:47;;;;;;;13.38;8.38;;;;;;;-2.46;67.24;96455.38;9956769;29;20066;-73
2021/01/31 01:41:07;;;;;;;11.30;7.30;;;;;;;-2.48;67.84;96466.13;9969450;29;20059;-73
2021/01/31 01:46:34;;;;;;;11.73;7.93;;;;;;;-2.58;67.65;96460.44;9969608;29;20142;-73
2021/01/31 01:52:44;;;;;;;12.00;7.90;;;;;;;-2.66;67.90;96470.56;9958504;29;20074;-73
2021/01/31 01:58:22;;;;;;;13.35;7.90;;;;;;;-2.69;67.49;96463.47;9968268;29;20198;-73
2021/01/31 02:03:42;;;;;;;12.30;7.72;;;;;;;-2.70;68.17;96473.66;9949412;29;20062;-73
2021/01/31 02:09:05;;;;;;;11.23;8.05;;;;;;;-2.78;67.89;96470.13;9949741;29;20054;-73
2021/01/31 02:14:24;;;;;;;12.60;8.15;;;;;;;-2.86;68.24;96471.34;9962515;29;20062;-73
2021/01/31 02:20:03;;;;;;;13.25;8.52;;;;;;;-2.89;68.06;96464.97;9949708;29;20145;-73
2021/01/31 02:26:10;;;;;;;12.77;8.38;;;;;;;-2.90;68.67;96475.13;9988255;29;20511;-73
2021/01/31 02:32:09;;;;;;;11.98;7.78;;;;;;;-2.82;68.05;96480.66;9974523;29;20058;-73
2021/01/31 02:37:46;;;;;;;13.52;8.07;;;;;;;-2.76;68.33;96483.97;9976676;29;20422;-73
2021/01/31 02:43:13;;;;;;;14.52;8.82;;;;;;;-2.71;68.12;96477.63;9950750;29;20066;-73
2021/01/31 02:48:50;;;;;;;12.18;8.73;;;;;;;-2.66;68.44;96476.75;9948938;29;20058;-73
2021/01/31 02:54:24;;;;;;;12.07;7.75;;;;;;;-2.63;68.07;96486.59;9949416;29;20095;-73
2021/01/31 02:59:49;;;;;;;12.90;8.68;;;;;;;-2.64;68.24;96492.63;9973640;29;20126;-73
2021/01/31 03:05:19;;;;;;;13.48;7.82;;;;;;;-2.71;68.47;96493.28;9961893;29;20078;-73
2021/01/31 03:10:45;;;;;;;10.88;7.70;;;;;;;-2.75;68.54;96507.28;9948960;29;20468;-73
2021/01/31 03:16:18;;;;;;;12.40;7.93;;;;;;;-2.83;68.71;96505.78;9960418;29;20130;-73
2021/01/31 03:21:38;;;;;;;13.38;8.55;;;;;;;-2.92;68.77;96506.97;9961943;29;20058;-73
2021/01/31 03:27:05;;;;;;;12.35;8.38;;;;;;;-3.01;68.79;96502.72;9973883;29;20066;-73
2021/01/31 03:32:59;;;;;;;12.45;8.20;;;;;;;-3.05;68.73;96512.50;9960374;29;20077;-73
2021/01/31 03:38:36;;;;;;;12.13;7.68;;;;;;;-3.17;68.88;96507.31;9972558;29;20118;-73
2021/01/31 03:43:56;;;;;;;14.55;8.90;;;;;;;-3.27;69.42;96514.50;9973447;29;20141;-73
2021/01/31 03:49:25;;;;;;;13.10;8.48;;;;;;;-3.38;68.97;96520.19;9972158;29;20088;-73
2021/01/31 03:54:44;;;;;;;13.30;8.15;;;;;;;-3.47;68.88;96534.31;9959851;29;20422;-73
2021/01/31 04:00:23;;;;;;;14.70;8.93;;;;;;;-3.51;68.71;96536.63;9960363;29;20062;-73
2021/01/31 04:06:12;;;;;;;13.15;8.80;;;;;;;-3.50;69.35;96538.09;9949769;29;20066;-73
2021/01/31 04:11:38;;;;;;;13.32;8.55;;;;;;;-3.48;69.43;96547.19;9960975;29;20066;-73
2021/01/31 04:16:58;;;;;;;12.63;9.02;;;;;;;-3.48;69.59;96543.75;9945694;29;20070;-73
2021/01/31 04:22:17;;;;;;;11.40;8.15;;;;;;;-3.43;69.32;96550.34;9959613;29;20522;-73
2021/01/31 04:27:37;;;;;;;15.10;9.77;;;;;;;-3.45;69.57;96550.88;9945789;29;20062;-73
2021/01/31 04:33:00;;;;;;;14.30;9.50;;;;;;;-3.44;69.83;96548.88;9959221;29;20313;-72
2021/01/31 04:38:20;;;;;;;14.40;9.13;;;;;;;-3.46;69.67;96558.34;9970866;29;20070;-73
2021/01/31 04:43:41;;;;;;;14.90;9.38;;;;;;;-3.50;69.58;96557.91;9959017;29;20062;-73
2021/01/31 04:49:29;;;;;;;13.82;9.32;;;;;;;-3.54;69.95;96562.25;9970643;29;20065;-73
2021/01/31 04:55:21;;;;;;;16.23;9.15;;;;;;;-3.53;69.99;96560.97;9958150;29;20058;-73
2021/01/31 05:01:17;;;;;;;16.58;8.73;;;;;;;-3.48;70.08;96568.28;9963529;29;20062;-73
2021/01/31 05:06:49;;;;;;;14.53;7.60;;;;;;;-3.42;69.44;96557.28;9968116;29;20126;-73
2021/01/31 05:12:23;;;;;;;13.93;9.05;;;;;;;-3.43;69.88;96561.28;9983827;29;20062;-73
2021/01/31 05:17:45;;;;;;;12.48;8.32;;;;;;;-3.51;69.56;96564.63;9984033;29;20510;-73
2021/01/31 05:23:07;;;;;;;15.15;8.13;;;;;;;-3.54;69.83;96573.88;9950893;29;20058;-73
2021/01/31 05:28:27;;;;;;;15.00;9.38;;;;;;;-3.56;69.84;96578.41;9985093;29;20069;-73
2021/01/31 05:33:56;;;;;;;15.80;10.00;;;;;;;-3.55;69.98;96588.06;10001214;29;20064;-73
2021/01/31 05:39:15;;;;;;;13.45;8.35;;;;;;;-3.58;70.16;96583.63;9988891;29;20061;-73
2021/01/31 05:44:39;;;;;;;14.38;8.60;;;;;;;-3.62;69.80;96591.44;10001775;29;20092;-73
2021/01/31 05:49:59;;;;;;;12.90;8.23;;;;;;;-3.70;69.52;96587.88;10000429;29;20066;-73
2021/01/31 05:55:29;;;;;;;13.57;8.55;;;;;;;-3.77;70.03;96591.94;10001144;29;20069;-73
2021/01/31 06:01:08;;;;;;;13.85;8.18;;;;;;;-3.81;69.78;96592.28;10000164;29;20066;-73
2021/01/31 06:06:32;;;;;;;13.85;9.10;;;;;;;-3.80;69.97;96609.38;9991103;29;20062;-73
2021/01/31 06:11:52;;;;;;;12.95;7.90;;;;;;;-3.79;70.66;96625.22;10012409;29;20066;-73
2021/01/31 06:17:24;;;;;;;14.45;8.88;;;;;;;-3.80;70.29;96623.75;10000869;29;20133;-73
2021/01/31 06:22:46;;;;;;;12.68;8.27;;;;;;;-3.91;69.90;96629.41;10012582;29;20057;-73
2021/01/31 06:28:10;;;;;;;14.10;9.10;;;;;;;-3.94;70.32;96638.66;9999767;29;20448;-73
2021/01/31 06:33:29;;;;;;;13.05;8.52;;;;;;;-4.00;70.35;96638.00;10025592;29;20066;-73
2021/01/31 06:39:27;;;;;;;13.45;8.57;;;;;;;-4.00;70.04;96632.56;9998607;29;20062;-73
2021/01/31 06:45:22;;;;;;;12.68;8.07;;;;;;;-3.97;70.18;96641.66;10012937;29;20137;-73
2021/01/31 06:51:00;;;;;;;15.95;9.23;;;;;;;-3.79;70.46;96646.28;9999647;29;20073;-73
2021/01/31 06:56:39;;;;;;;15.63;9.18;;;;;;;-3.47;70.32;96644.19;10025499;29;20065;-73
2021/01/31 07:02:54;;;;;;;14.10;9.13;;;;;;;-0.79;72.72;96654.34;9998575;29;20546;-73
2021/01/31 07:08:36;;;;;;;14.77;9.80;;;;;;;3.30;72.67;96670.50;10010820;29;20062;-73
2021/01/31 07:14:27;;;;;;;12.70;9.40;;;;;;;5.62;67.46;96672.91;10010749;29;20070;-74
2021/01/31 07:19:55;;;;;;;12.15;8.27;;;;;;;5.13;63.80;96675.03;10010889;29;20446;-70
2021/01/31 07:25:28;;;;;;;13.63;9.07;;;;;;;3.78;63.23;96663.78;9982851;29;20127;-72
2021/01/31 07:31:04;;;;;;;13.68;9.77;;;;;;;6.90;66.18;96673.09;9959587;29;20141;-73
2021/01/31 07:36:34;;;;;;;15.30;10.30;;;;;;;8.55;61.39;96681.09;9959565;29;20124;-72
2021/01/31 07:41:55;;;;;;;17.48;10.77;;;;;;;8.81;58.49;96678.41;9959909;29;20115;-70
2021/01/31 07:47:15;;;;;;;15.05;10.65;;;;;;;9.84;58.33;96693.78;9946626;29;20127;-70
2021/01/31 07:52:49;;;;;;;16.63;10.05;;;;;;;9.91;54.33;96690.69;9945226;29;20069;-70
2021/01/31 07:58:21;;;;;;;12.38;9.68;;;;;;;9.29;53.50;96685.25;9959204;29;20118;-70
2021/01/31 08:03:41;;;;;;;12.55;9.45;;;;;;;10.43;52.58;96696.91;9971700;29;20061;-70
2021/01/31 08:09:01;;;;;;;14.07;10.13;;;;;;;10.17;48.04;96699.72;9959138;29;20069;-70
2021/01/31 08:15:10;;;;;;;13.75;10.48;;;;;;;8.48;46.47;96686.91;9958328;29;20062;-70
2021/01/31 08:20:29;;;;;;;13.98;10.35;;;;;;;9.39;49.24;96694.88;9970686;29;20070;-70
2021/01/31 08:26:04;;;;;;;13.30;10.23;;;;;;;15.66;45.40;96705.16;9984787;29;20460;-71
2021/01/31 08:31:24;;;;;;;12.82;10.50;;;;;;;19.33;35.87;96703.38;9946417;29;20067;-71
2021/01/31 08:36:44;;;;;;;12.52;10.25;;;;;;;18.42;33.19;96705.19;9945184;29;20433;-71
2021/01/31 08:42:07;;;;;;;12.98;10.55;;;;;;;19.30;29.47;96709.69;9945341;29;20125;-70
2021/01/31 08:47:40;;;;;;;14.27;10.13;;;;;;;17.42;28.55;96710.72;9955966;29;20069;-71
2021/01/31 08:53:02;;;;;;;12.90;10.15;;;;;;;19.06;28.12;96707.88;9995541;29;20057;-71
2021/01/31 08:58:22;;;;;;;12.05;9.60;;;;;;;20.68;26.20;96708.88;9994527;29;20066;-71
2021/01/31 09:03:43;;;;;;;13.48;10.18;;;;;;;21.37;23.51;96709.59;9982804;29;20063;-71
2021/01/31 09:09:03;;;;;;;11.98;9.43;;;;;;;27.60;19.88;96709.72;9951994;29;20507;-70
2021/01/31 09:14:29;;;;;;;12.32;9.55;;;;;;;31.77;16.18;96713.44;9951920;29;20093;-70
2021/01/31 09:19:49;;;;;;;12.05;9.15;;;;;;;35.32;12.33;96712.38;9952490;29;20066;-72
2021/01/31 09:25:10;;;;;;;9.90;8.88;;;;;;;34.71;10.53;96709.38;9964621;29;20089;-72
2021/01/31 09:30:30;;;;;;;9.77;8.13;;;;;;;36.76;9.24;96700.88;9976620;29;20123;-72
2021/01/31 09:35:49;;;;;;;9.18;7.72;;;;;;;37.47;7.66;96694.81;9963738;29;20422;-72
2021/01/31 09:41:09;;;;;;;9.10;7.55;;;;;;;36.01;8.11;96703.25;9963383;29;20070;-73
2021/01/31 09:46:29;;;;;;;8.10;7.30;;;;;;;37.85;6.95;96693.44;9977194;29;20075;-72
2021/01/31 09:51:49;;;;;;;9.05;7.07;;;;;;;35.99;6.53;96702.63;9963203;29;20477;-73
2021/01/31 09:57:26;;;;;;;8.88;7.05;;;;;;;36.11;7.23;96705.66;9976777;29;20100;-72
2021/01/31 10:02:46;;;;;;;8.32;6.65;;;;;;;35.86;6.58;96702.53;9976385;29;20065;-72
2021/01/31 10:08:07;;;;;;;8.88;7.57;;;;;;;32.57;7.39;96680.38;9950123;29;20066;-72
2021/01/31 10:13:33;;;;;;;8.82;6.38;;;;;;;32.75;7.75;96676.09;9961736;29;20070;-72
2021/01/31 10:18:53;;;;;;;9.55;7.13;;;;;;;30.36;8.52;96677.25;9975335;29;20135;-72
2021/01/31 10:24:16;;;;;;;9.18;7.43;;;;;;;28.74;9.90;96668.19;9962782;29;20090;-72
2021/01/31 10:29:35;;;;;;;8.55;7.05;;;;;;;25.57;10.91;96672.78;9974651;29;20062;-72
2021/01/31 10:34:55;;;;;;;6.75;6.00;;;;;;;22.00;12.95;96664.63;9961580;29;20067;-72
2021/01/31 10:40:43;;;;;;;5.13;4.20;;;;;;;19.44;14.24;96659.00;9958588;29;20062;-81
2021/01/31 10:46:04;;;;;;;8.13;6.30;;;;;;;17.14;16.42;96663.50;9960131;29;20066;-81
2021/01/31 10:51:25;;;;;;;6.80;6.00;;;;;;;16.23;17.09;96650.53;9947623;29;20076;-81
2021/01/31 10:56:44;;;;;;;6.60;5.55;;;;;;;15.25;18.34;96646.16;9952856;29;20075;-79
2021/01/31 11:02:07;;;;;;;7.55;6.30;;;;;;;14.31;18.44;96646.53;10096443;24;20054;-75
2021/01/31 11:07:26;;;;;;;7.93;6.30;;;;;;;13.69;19.49;96645.66;9972434;29;20069;-75
2021/01/31 11:12:46;;;;;;;8.05;6.38;;;;;;;13.00;20.75;96642.94;9959480;29;20215;-75
2021/01/31 11:18:16;;;;;;;9.20;5.85;;;;;;;11.97;20.73;96639.31;9972959;29;20123;-76
2021/01/31 11:23:35;;;;;;;8.30;6.40;;;;;;;11.42;21.92;96637.50;9994219;29;20069;-77
2021/01/31 11:28:55;;;;;;;7.85;6.28;;;;;;;10.63;22.63;96641.38;9974765;29;20069;-77
2021/01/31 11:34:15;;;;;;;9.25;6.43;;;;;;;9.87;23.37;96645.91;9979980;29;20072;-76
2021/01/31 11:39:41;;;;;;;8.70;6.97;;;;;;;9.18;24.00;96629.00;9996535;29;20062;-81
2021/01/31 11:45:12;;;;;;;9.20;6.65;;;;;;;8.95;25.01;96633.94;10005763;29;20085;-80
2021/01/31 11:57:16;;;;;;;6.72;5.47;;;;;;;8.47;26.06;96613.88;10292314;24;20086;-79
2021/01/31 12:09:06;;;;;;;9.90;6.55;;;;;;;7.89;26.70;96613.94;10584508;24;20094;-80
2021/01/31 12:20:46;;;;;;;7.30;5.70;;;;;;;6.96;28.41;96598.59;11021854;24;20639;-81
2021/01/31 12:26:37;;;;;;;7.82;5.88;;;;;;;6.62;29.31;96596.41;10255584;24;20061;-79
2021/01/31 13:59:40;;;;;;;11.63;8.35;;;;;;;4.80;35.38;96564.16;11209457;23;20065;-80
2021/01/31 14:05:00;;;;;;;12.18;7.90;;;;;;;4.73;36.02;96557.47;9928957;29;20150;-81
2021/01/31 14:10:20;;;;;;;11.90;8.57;;;;;;;4.63;35.73;96559.50;9932115;29;20141;-79
2021/01/31 14:15:40;;;;;;;12.57;8.20;;;;;;;4.60;35.47;96549.63;9921841;29;20142;-79
2021/01/31 14:21:00;;;;;;;14.35;8.32;;;;;;;4.45;36.93;96549.94;9913413;30;20389;-79
2021/01/31 14:26:46;;;;;;;11.70;8.45;;;;;;;4.30;36.65;96548.91;9921566;30;20063;-82
2021/01/31 14:57:05;;;;;;;14.18;8.10;;;;;;;2.79;40.65;96522.47;10156978;23;20062;-78
2021/01/31 15:02:43;;;;;;;14.20;8.20;;;;;;;2.57;40.14;96513.94;9938526;29;20129;-75
2021/01/31 15:08:18;;;;;;;11.37;7.90;;;;;;;2.17;42.59;96519.75;9949037;29;20047;-75
2021/01/31 15:13:38;;;;;;;11.95;8.68;;;;;;;1.66;42.35;96509.47;9948407;29;20320;-74
2021/01/31 15:18:58;;;;;;;13.00;8.07;;;;;;;1.19;44.44;96497.38;9923003;29;20059;-77
2021/01/31 15:24:19;;;;;;;10.50;7.20;;;;;;;0.89;44.71;96503.84;9925979;29;20145;-79
2021/01/31 15:29:39;;;;;;;12.38;8.30;;;;;;;0.68;46.43;96495.91;9945366;29;20123;-78
2021/01/31 15:34:59;;;;;;;11.38;8.05;;;;;;;0.39;46.74;96498.25;9933076;29;20059;-76
2021/01/31 15:40:20;;;;;;;10.85;7.05;;;;;;;0.10;48.89;96483.38;9946590;29;20059;-76
2021/01/31 15:45:40;;;;;;;12.45;7.43;;;;;;;-0.03;47.68;96495.28;9933439;29;20063;-75
2021/01/31 15:51:00;;;;;;;13.60;9.18;;;;;;;-0.26;47.09;96494.63;9946530;29;20066;-77
2021/01/31 15:56:19;;;;;;;11.15;7.10;;;;;;;-0.40;49.14;96492.09;9946218;29;20668;-77
2021/01/31 16:01:39;;;;;;;11.23;7.13;;;;;;;-0.50;49.14;96496.66;9932636;29;20097;-77
2021/01/31 16:06:59;;;;;;;13.32;7.78;;;;;;;-0.60;49.47;96499.25;9946074;29;20506;-76
2021/01/31 16:12:19;;;;;;;12.32;7.78;;;;;;;-0.71;51.47;96498.88;9944538;29;20388;-76
2021/01/31 16:17:39;;;;;;;12.45;8.13;;;;;;;-0.95;51.71;96508.41;9945565;29;20392;-76
2021/01/31 16:23:00;;;;;;;13.40;7.75;;;;;;;-1.12;51.73;96514.41;9945666;29;20069;-76
2021/01/31 16:28:19;;;;;;;14.13;9.05;;;;;;;-1.28;52.86;96521.13;9945710;29;20087;-77
2021/01/31 16:33:39;;;;;;;15.35;9.13;;;;;;;-1.46;52.59;96518.16;9919396;29;20074;-78
2021/01/31 16:38:59;;;;;;;18.30;10.73;;;;;;;-1.51;53.02;96515.59;9950068;24;20062;-78
2021/01/31 16:44:23;;;;;;;17.27;10.85;;;;;;;-1.51;54.29;96516.31;9965581;23;20130;-78
2021/01/31 16:49:50;;;;;;;17.27;10.20;;;;;;;-1.53;54.66;96507.94;10043869;23;20061;-76
2021/01/31 16:55:12;;;;;;;17.55;11.57;;;;;;;-1.61;55.46;96511.91;9940138;29;20073;-76
2021/01/31 17:00:33;;;;;;;18.60;11.68;;;;;;;-1.68;54.69;96502.41;9931643;29;20069;-76
2021/01/31 17:05:54;;;;;;;18.05;11.90;;;;;;;-1.75;57.63;96492.88;9943008;29;20165;-75
2021/01/31 17:11:14;;;;;;;17.60;11.25;;;;;;;-1.80;57.67;96496.53;9931614;29;20066;-75
2021/01/31 17:16:34;;;;;;;17.50;10.75;;;;;;;-1.86;55.15;96476.06;9944937;29;20149;-75
2021/01/31 17:21:54;;;;;;;21.55;12.02;;;;;;;-1.86;57.49;96481.53;9945478;29;20063;-77
2021/01/31 17:27:18;;;;;;;21.23;12.70;;;;;;;-1.93;56.58;96474.03;9954413;29;20564;-79
2021/01/31 17:32:38;;;;;;;18.13;11.93;;;;;;;-1.86;55.43;96487.75;9926370;29;20072;-73
2021/01/31 17:37:58;;;;;;;19.08;11.32;;;;;;;-1.83;56.14;96480.47;9938228;29;20058;-73
2021/01/31 17:43:18;;;;;;;17.25;11.20;;;;;;;-1.81;56.33;96478.66;9925337;29;20055;-75
2021/01/31 17:48:38;;;;;;;16.55;10.65;;;;;;;-1.83;57.02;96480.47;9937856;29;20070;-75
2021/01/31 17:53:57;;;;;;;20.85;11.65;;;;;;;-1.85;57.65;96472.06;9925234;29;20606;-75
2021/01/31 17:59:17;;;;;;;19.02;12.23;;;;;;;-1.92;57.23;96478.25;9937398;29;20163;-74
2021/01/31 18:04:37;;;;;;;18.13;11.38;;;;;;;-2.00;56.70;96467.28;9951907;29;20066;-79
2021/01/31 18:09:57;;;;;;;19.15;11.43;;;;;;;-2.07;57.63;96460.50;9956317;29;20091;-81
2021/01/31 18:15:18;;;;;;;17.98;11.73;;;;;;;-2.07;58.31;96454.28;9950561;29;20544;-79
2021/01/31 18:20:38;;;;;;;20.42;12.32;;;;;;;-2.13;58.45;96443.50;9950220;29;20069;-78
2021/01/31 18:25:58;;;;;;;20.23;12.35;;;;;;;-2.17;59.17;96437.66;9950045;29;20137;-78
2021/01/31 18:31:18;;;;;;;19.33;12.02;;;;;;;-2.19;59.28;96423.09;9936336;29;20070;-78
2021/01/31 18:36:39;;;;;;;20.13;12.95;;;;;;;-2.23;60.69;96431.63;9935178;29;20067;-78
2021/01/31 18:41:59;;;;;;;20.38;12.60;;;;;;;-2.31;61.08;96434.34;9949327;29;20070;-78
2021/01/31 18:47:19;;;;;;;20.20;13.13;;;;;;;-2.36;60.67;96434.47;9949315;29;20142;-78
2021/01/31 18:52:40;;;;;;;22.92;13.73;;;;;;;-2.43;61.32;96437.91;9949206;29;20098;-78
2021/01/31 18:58:02;;;;;;;21.25;13.75;;;;;;;-2.48;62.02;96436.06;9935381;29;20074;-77
2021/01/31 19:03:22;;;;;;;21.30;13.93;;;;;;;-2.52;61.42;96433.66;9948687;29;20059;-77
2021/01/31 19:08:42;;;;;;;24.83;14.32;;;;;;;-2.61;61.84;96421.25;9938247;29;20074;-80
2021/01/31 19:14:06;;;;;;;24.38;14.75;;;;;;;-2.56;62.50;96419.63;9923307;29;20078;-75
2021/01/31 19:19:26;;;;;;;22.15;13.77;;;;;;;-2.57;62.50;96425.63;9948087;29;20146;-76
2021/01/31 19:24:46;;;;;;;20.35;13.25;;;;;;;-2.58;61.78;96394.13;9909245;29;20490;-77
2021/01/31 19:30:07;;;;;;;24.30;14.68;;;;;;;-2.60;62.69;96389.19;9934244;29;20572;-76
2021/01/31 19:35:27;;;;;;;23.55;13.98;;;;;;;-2.66;61.62;96389.34;9947502;29;20145;-78
2021/01/31 19:40:47;;;;;;;23.10;14.27;;;;;;;-2.69;61.79;96393.16;9947270;29;20515;-78
2021/01/31 19:46:07;;;;;;;23.98;14.07;;;;;;;-2.71;62.72;96381.28;9921088;29;20153;-77
2021/01/31 19:51:27;;;;;;;23.05;14.77;;;;;;;-2.78;62.12;96374.53;9933260;29;20070;-78
2021/01/31 19:56:47;;;;;;;25.48;15.30;;;;;;;-2.78;63.23;96380.00;9946843;29;20066;-78
2021/01/31 20:02:06;;;;;;;24.08;15.25;;;;;;;-2.74;63.03;96371.44;9932954;29;20099;-78
2021/01/31 20:07:26;;;;;;;26.05;16.88;;;;;;;-2.75;64.36;96368.00;9932933;29;20067;-78
2021/01/31 20:12:47;;;;;;;28.90;18.38;;;;;;;-2.76;63.41;96374.72;9946146;29;20490;-76
2021/01/31 20:18:08;;;;;;;23.45;15.52;;;;;;;-2.76;63.41;96363.78;9946259;29;20424;-76
2021/01/31 20:23:27;;;;;;;24.20;16.05;;;;;;;-2.74;63.40;96358.53;9908170;29;20062;-80
2021/01/31 20:28:47;;;;;;;29.67;16.45;;;;;;;-2.77;64.04;96358.88;9946281;29;20063;-77
2021/01/31 20:34:07;;;;;;;29.52;17.95;;;;;;;-2.81;64.10;96348.28;9947433;29;20558;-79
2021/01/31 20:39:27;;;;;;;28.02;17.25;;;;;;;-2.84;64.54;96340.44;9946763;29;20423;-79
2021/01/31 20:44:47;;;;;;;30.35;17.77;;;;;;;-2.95;63.89;96333.28;9921260;29;20133;-78
2021/01/31 20:50:10;;;;;;;27.90;17.77;;;;;;;-2.97;64.46;96327.66;9935340;29;20078;-79
2021/01/31 20:55:30;;;;;;;29.45;18.13;;;;;;;-3.01;64.32;96330.69;9947159;29;20067;-74
2021/01/31 21:00:50;;;;;;;29.02;17.90;;;;;;;-3.05;64.20;96315.94;9952646;29;20065;-73
2021/01/31 21:06:10;;;;;;;28.27;18.30;;;;;;;-3.13;64.85;96310.44;9955256;29;20067;-73
2021/01/31 21:11:29;;;;;;;29.10;17.95;;;;;;;-3.12;64.69;96316.63;9927124;29;20153;-73
2021/01/31 21:16:49;;;;;;;28.80;18.30;;;;;;;-3.17;65.16;96302.59;9940278;29;20066;-73
2021/01/31 21:22:09;;;;;;;30.55;17.70;;;;;;;-3.25;65.77;96298.38;9940028;29;20062;-73
2021/01/31 21:27:29;;;;;;;32.47;19.60;;;;;;;-3.30;66.11;96302.69;9940749;29;20076;-74
2021/01/31 21:32:48;;;;;;;31.83;19.52;;;;;;;-3.36;66.27;96304.13;9939311;29;20078;-73
2021/01/31 21:38:08;;;;;;;32.60;19.98;;;;;;;-3.44;66.67;96298.59;9926928;29;20074;-73
2021/01/31 21:43:28;;;;;;;30.58;18.55;;;;;;;-3.47;66.29;96288.78;9927141;29;20059;-73
2021/01/31 21:48:49;;;;;;;33.38;20.08;;;;;;;-3.52;66.45;96276.00;9952523;29;20067;-73
2021/01/31 21:54:09;;;;;;;37.70;20.20;;;;;;;-3.57;67.81;96279.59;9939030;29;20070;-73
2021/01/31 21:59:28;;;;;;;34.40;20.73;;;;;;;-3.67;67.34;96275.88;9914752;29;20063;-73
2021/01/31 22:04:48;;;;;;;36.38;20.50;;;;;;;-3.66;68.41;96266.47;9938634;29;20067;-73
2021/01/31 22:10:10;;;;;;;37.22;21.25;;;;;;;-3.75;68.52;96270.38;9912518;29;20069;-73
2021/01/31 22:15:30;;;;;;;33.08;19.38;;;;;;;-3.81;68.54;96267.78;9925669;29;20066;-74
2021/01/31 22:20:49;;;;;;;34.47;20.02;;;;;;;-3.82;67.79;96279.25;9937968;29;20066;-73
2021/01/31 22:26:09;;;;;;;34.28;19.95;;;;;;;-3.81;68.08;96280.69;9938987;29;20526;-74
2021/01/31 22:31:29;;;;;;;32.60;19.52;;;;;;;-3.82;68.33;96277.25;9937823;29;20071;-73
2021/01/31 22:36:49;;;;;;;32.03;19.55;;;;;;;-3.79;68.50;96276.16;9937952;29;20119;-73
2021/01/31 22:42:09;;;;;;;33.88;19.52;;;;;;;-3.78;68.53;96265.97;9925409;29;20570;-73
2021/01/31 22:47:29;;;;;;;32.60;19.30;;;;;;;-3.76;67.89;96266.94;9924641;29;20101;-73
2021/01/31 22:52:48;;;;;;;31.98;19.88;;;;;;;-3.77;68.04;96259.25;9937281;29;20415;-73
2021/01/31 22:58:11;;;;;;;36.95;20.52;;;;;;;-3.85;67.85;96270.13;9924523;29;20069;-74
2021/01/31 23:03:31;;;;;;;32.47;19.40;;;;;;;-3.89;67.98;96260.81;9936816;29;20067;-74
2021/01/31 23:08:51;;;;;;;32.67;20.48;;;;;;;-3.86;68.09;96246.88;9936452;29;20423;-73
2021/01/31 23:14:11;;;;;;;34.78;21.20;;;;;;;-3.85;68.23;96245.59;9950094;29;20070;-74
2021/01/31 23:19:31;;;;;;;33.00;19.73;;;;;;;-3.88;68.46;96238.47;9936011;29;20523;-73
2021/01/31 23:24:50;;;;;;;33.00;19.52;;;;;;;-3.88;68.14;96224.84;9923159;29;20069;-74
2021/01/31 23:30:14;;;;;;;33.67;19.55;;;;;;;-3.88;68.12;96222.09;9922972;29;20083;-73
2021/01/31 23:35:34;;;;;;;36.08;21.10;;;;;;;-3.92;68.36;96216.28;9935547;29;20065;-74
2021/01/31 23:40:54;;;;;;;35.90;20.88;;;;;;;-4.00;68.58;96212.75;9948693;29;20062;-74
2021/01/31 23:46:14;;;;;;;35.72;21.95;;;;;;;-4.03;68.46;96213.84;9948683;29;20066;-73
2021/01/31 23:51:33;;;;;;;35.28;21.42;;;;;;;-4.08;68.23;96212.69;9922795;29;20070;-73
2021/01/31 23:56:53;;;;;;;35.38;20.77;;;;;;;-4.12;68.53;96214.31;9934726;29;20066;-74
